Time;durP1;ratioP1;P1;durP2;ratioP2;P2;SDS_P1;SDS_P2;PMS_P1;PMS_P2;Temp;Humidity;BMP_temperature;BMP_pressure;BME280_temperature;BME280_humidity;BME280_pressure;Samples;Min_cycle;Max_cycle;Signal;HPM_P1;HPM_P2
2022/10/28 00:00:22;;;;;;;2.80;1.27;;;17.50;45.20;;;;;;5013747;28;20188;-79
2022/10/28 00:02:48;;;;;;;3.57;1.63;;;17.30;45.80;;;;;;5015631;28;20879;-79
2022/10/28 00:05:14;;;;;;;2.87;1.30;;;17.40;45.60;;;;;;5015635;28;20857;-79
2022/10/28 00:07:39;;;;;;;3.20;1.50;;;17.30;45.30;;;;;;5015784;28;20189;-79
2022/10/28 00:10:05;;;;;;;7.13;2.27;;;17.20;45.40;;;;;;5011629;28;20443;-79
2022/10/28 00:12:35;;;;;;;2.70;1.10;;;17.20;45.40;;;;;;5014621;28;20193;-79
2022/10/28 00:15:00;;;;;;;3.03;1.43;;;17.10;46.20;;;;;;5015148;28;20505;-79
2022/10/28 00:17:26;;;;;;;3.77;1.70;;;17.10;46.00;;;;;;5010814;28;20420;-79
2022/10/28 00:19:52;;;;;;;3.00;1.50;;;17.10;46.80;;;;;;5021167;28;20209;-79
2022/10/28 00:22:17;;;;;;;2.80;1.20;;;17.10;46.90;;;;;;5026593;28;20187;-80
2022/10/28 00:24:43;;;;;;;2.80;1.20;;;17.20;46.30;;;;;;5015442;28;20188;-80
2022/10/28 00:27:08;;;;;;;3.20;1.53;;;17.20;46.00;;;;;;5016568;28;20177;-80
2022/10/28 00:29:34;;;;;;;3.10;1.30;;;17.30;46.70;;;;;;5014269;28;20601;-80
2022/10/28 00:31:59;;;;;;;3.40;1.50;;;17.20;46.70;;;;;;5014097;28;20200;-80
2022/10/28 00:34:25;;;;;;;5.13;1.67;;;17.20;46.00;;;;;;5015101;28;20193;-80
2022/10/28 00:36:51;;;;;;;3.53;1.70;;;17.40;45.70;;;;;;5016700;28;20209;-80
2022/10/28 00:39:18;;;;;;;3.10;1.47;;;17.50;45.90;;;;;;5014949;28;20208;-80
2022/10/28 00:41:46;;;;;;;3.10;1.43;;;17.40;46.00;;;;;;5007779;28;20546;-80
2022/10/28 00:44:50;;;;;;;4.63;1.77;;;17.10;46.30;;;;;;5012676;28;20859;-80
2022/10/28 00:47:44;;;;;;;3.10;1.40;;;17.00;46.40;;;;;;5013999;28;20428;-80
2022/10/28 00:50:12;;;;;;;2.77;1.13;;;17.00;46.70;;;;;;5013009;28;20909;-80
2022/10/28 00:52:39;;;;;;;3.53;1.70;;;16.20;48.50;;;;;;5007025;28;20806;-79
2022/10/28 00:55:07;;;;;;;3.00;1.30;;;15.60;52.80;;;;;;5010797;28;20469;-79
2022/10/28 00:57:37;;;;;;;2.97;1.27;;;15.70;52.30;;;;;;5014283;28;20481;-80
2022/10/28 01:00:06;;;;;;;3.00;1.40;;;16.20;50.50;;;;;;5013682;28;20474;-80
2022/10/28 01:02:36;;;;;;;4.80;2.00;;;15.80;50.70;;;;;;5011473;28;20435;-80
2022/10/28 01:05:03;;;;;;;2.90;1.30;;;16.10;50.50;;;;;;5008077;28;20464;-79
2022/10/28 01:07:29;;;;;;;3.53;1.60;;;16.20;49.60;;;;;;5015180;28;20930;-79
2022/10/28 01:09:55;;;;;;;3.57;1.20;;;16.30;49.10;;;;;;5014960;28;20530;-80
2022/10/28 01:12:46;;;;;;;3.30;1.50;;;16.60;48.90;;;;;;5020401;28;20475;-80
2022/10/28 01:15:21;;;;;;;3.10;1.50;;;16.50;47.90;;;;;;5010577;28;20868;-80
2022/10/28 01:17:58;;;;;;;2.90;1.20;;;16.50;48.00;;;;;;5013293;28;20432;-80
2022/10/28 01:21:09;;;;;;;3.10;1.50;;;16.50;48.10;;;;;;5013346;28;20436;-80
2022/10/28 01:23:58;;;;;;;2.90;1.30;;;16.40;48.30;;;;;;5012393;28;20823;-80
2022/10/28 01:26:59;;;;;;;3.63;1.60;;;16.40;48.00;;;;;;5009729;28;20483;-80
2022/10/28 01:30:08;;;;;;;3.30;1.50;;;16.40;47.50;;;;;;4988277;28;20427;-80
2022/10/28 01:33:11;;;;;;;2.90;1.30;;;16.50;48.00;;;;;;5013014;28;20513;-80
2022/10/28 01:35:53;;;;;;;3.57;1.53;;;16.50;47.10;;;;;;5009718;28;20486;-80
2022/10/28 01:38:27;;;;;;;3.00;1.23;;;16.50;47.20;;;;;;5010499;28;20462;-80
2022/10/28 01:41:14;;;;;;;10.83;2.97;;;16.70;47.10;;;;;;5013085;28;20415;-79
2022/10/28 01:43:49;;;;;;;4.50;1.97;;;16.60;47.20;;;;;;4995446;28;20420;-79
2022/10/28 01:46:44;;;;;;;3.10;1.47;;;16.40;47.50;;;;;;5007221;28;20491;-79
2022/10/28 01:49:13;;;;;;;2.90;1.30;;;16.30;47.80;;;;;;5013684;28;20794;-80
2022/10/28 01:51:46;;;;;;;3.33;1.47;;;16.30;47.80;;;;;;5013448;28;20427;-79
2022/10/28 01:54:16;;;;;;;3.03;1.47;;;16.40;47.40;;;;;;5010878;28;20439;-79
2022/10/28 01:56:44;;;;;;;3.50;1.40;;;16.50;46.80;;;;;;5007665;28;20459;-79
2022/10/28 01:59:15;;;;;;;3.30;1.50;;;16.40;46.80;;;;;;5007799;28;20458;-79
2022/10/28 02:01:41;;;;;;;4.03;1.73;;;16.30;47.60;;;;;;5012306;28;20421;-80
2022/10/28 02:04:07;;;;;;;3.60;1.60;;;16.40;47.20;;;;;;5009826;28;20434;-80
2022/10/28 02:06:33;;;;;;;3.10;1.40;;;16.40;47.20;;;;;;5011603;28;20228;-80
2022/10/28 02:09:49;;;;;;;4.10;1.57;;;16.20;47.50;;;;;;5011715;28;20193;-79
2022/10/28 02:12:36;;;;;;;2.80;1.30;;;16.30;47.00;;;;;;4886082;29;20432;-79
2022/10/28 02:15:10;;;;;;;3.43;1.40;;;16.30;47.40;;;;;;4890509;29;20466;-79
2022/10/28 02:17:47;;;;;;;5.77;1.90;;;16.30;47.60;;;;;;4884343;29;20440;-79
2022/10/28 02:20:37;;;;;;;4.57;1.70;;;16.40;47.20;;;;;;4882792;29;20518;-79
2022/10/28 02:24:00;;;;;;;3.20;1.37;;;16.40;46.80;;;;;;4903563;29;20458;-79
2022/10/28 02:26:33;;;;;;;2.70;1.10;;;16.40;46.80;;;;;;4826078;29;20845;-79
2022/10/28 02:29:03;;;;;;;4.00;1.43;;;16.20;47.70;;;;;;4826091;29;20431;-79
2022/10/28 02:31:34;;;;;;;3.87;1.60;;;16.20;47.00;;;;;;4830312;29;20458;-79
2022/10/28 02:34:05;;;;;;;3.20;1.30;;;16.20;47.50;;;;;;4824809;29;20552;-79
2022/10/28 02:36:34;;;;;;;2.70;1.10;;;16.30;47.40;;;;;;4820454;29;20466;-79
2022/10/28 02:39:02;;;;;;;3.10;1.50;;;16.30;47.70;;;;;;4822872;29;20502;-79
2022/10/28 02:41:44;;;;;;;4.70;1.87;;;16.20;47.00;;;;;;4825575;29;20577;-79
2022/10/28 02:44:17;;;;;;;3.20;1.40;;;16.20;47.40;;;;;;4932338;29;20443;-79
2022/10/28 02:46:45;;;;;;;2.97;1.40;;;16.20;47.10;;;;;;5010795;23;20843;-72
2022/10/28 02:49:13;;;;;;;2.90;1.30;;;16.30;47.20;;;;;;4985222;28;20430;-72
2022/10/28 02:51:53;;;;;;;3.40;1.70;;;16.10;48.30;;;;;;4985364;28;20427;-72
2022/10/28 02:54:28;;;;;;;4.00;1.60;;;16.10;47.90;;;;;;4984383;28;20488;-71
2022/10/28 02:57:06;;;;;;;3.10;1.30;;;16.20;48.00;;;;;;4985035;28;20538;-71
2022/10/28 02:59:31;;;;;;;2.87;1.27;;;16.10;48.30;;;;;;4980269;28;20488;-71
2022/10/28 03:01:57;;;;;;;3.90;1.60;;;16.20;48.10;;;;;;4988987;28;20902;-72
2022/10/28 03:04:23;;;;;;;4.50;1.53;;;16.20;48.10;;;;;;4988466;28;20195;-71
2022/10/28 03:06:48;;;;;;;2.90;1.30;;;16.20;48.10;;;;;;4993512;28;20309;-71
2022/10/28 03:09:14;;;;;;;2.80;1.30;;;15.90;49.30;;;;;;4991374;28;20666;-71
2022/10/28 03:11:39;;;;;;;2.97;1.23;;;15.70;49.90;;;;;;4982858;28;20187;-71
2022/10/28 03:14:05;;;;;;;3.57;1.40;;;15.90;49.20;;;;;;4990214;28;20282;-71
2022/10/28 03:16:30;;;;;;;2.90;1.20;;;16.00;49.00;;;;;;4992807;28;20589;-71
2022/10/28 03:18:56;;;;;;;2.97;1.30;;;16.00;48.70;;;;;;4996461;28;20276;-72
2022/10/28 03:21:22;;;;;;;3.00;1.30;;;16.00;48.90;;;;;;4987405;28;20184;-71
2022/10/28 03:23:47;;;;;;;2.73;1.13;;;15.90;48.90;;;;;;4990950;28;20660;-71
2022/10/28 03:26:13;;;;;;;2.90;1.30;;;16.00;49.50;;;;;;4987157;28;20564;-71
2022/10/28 03:28:39;;;;;;;2.90;1.20;;;16.00;48.90;;;;;;4990628;28;20227;-71
2022/10/28 03:31:04;;;;;;;3.27;1.40;;;16.00;49.20;;;;;;4988594;28;20201;-72
2022/10/28 03:33:30;;;;;;;3.00;1.50;;;16.00;49.10;;;;;;4989167;28;20224;-72
2022/10/28 03:35:56;;;;;;;2.80;1.20;;;16.10;48.90;;;;;;4989015;28;20256;-72
2022/10/28 03:38:22;;;;;;;3.10;1.30;;;16.10;48.70;;;;;;4992457;28;20209;-72
2022/10/28 03:40:49;;;;;;;2.70;1.20;;;16.10;49.00;;;;;;5001068;28;20492;-72
2022/10/28 03:43:15;;;;;;;3.00;1.33;;;16.20;49.30;;;;;;4985061;28;20268;-72
2022/10/28 03:45:41;;;;;;;3.00;1.50;;;16.30;49.20;;;;;;4982525;28;20476;-72
2022/10/28 03:48:06;;;;;;;4.07;1.80;;;16.30;49.30;;;;;;4990756;28;20981;-72
2022/10/28 03:50:32;;;;;;;3.10;1.50;;;16.20;48.80;;;;;;4988400;28;20193;-72
2022/10/28 03:52:58;;;;;;;3.13;1.47;;;16.30;49.30;;;;;;4988211;28;20191;-72
2022/10/28 03:55:24;;;;;;;3.10;1.50;;;16.30;49.00;;;;;;4988735;28;20224;-72
2022/10/28 03:57:50;;;;;;;3.00;1.30;;;16.30;48.40;;;;;;4992359;28;20463;-70
2022/10/28 04:00:16;;;;;;;3.00;1.20;;;16.30;48.60;;;;;;4990972;28;20523;-70
2022/10/28 04:02:42;;;;;;;3.23;1.50;;;16.40;48.90;;;;;;4985216;28;20934;-70
2022/10/28 04:05:08;;;;;;;3.83;1.73;;;16.30;49.40;;;;;;4988845;28;20680;-69
2022/10/28 04:07:34;;;;;;;3.10;1.30;;;16.30;49.50;;;;;;4987172;28;21026;-70
2022/10/28 04:09:59;;;;;;;3.00;1.30;;;16.40;49.20;;;;;;4993021;28;20552;-70
2022/10/28 04:12:25;;;;;;;2.80;1.20;;;16.40;49.60;;;;;;4990063;28;20430;-70
2022/10/28 04:14:52;;;;;;;3.40;1.57;;;16.50;49.60;;;;;;4984914;28;20199;-71
2022/10/28 04:17:17;;;;;;;2.90;1.20;;;16.60;48.60;;;;;;4978714;28;20211;-70
2022/10/28 04:19:43;;;;;;;3.63;1.70;;;16.60;48.60;;;;;;4985569;28;20515;-69
2022/10/28 04:22:09;;;;;;;2.90;1.30;;;16.60;48.90;;;;;;4981313;28;20657;-70
2022/10/28 04:24:34;;;;;;;4.77;1.57;;;16.60;48.90;;;;;;4984315;28;20177;-69
2022/10/28 04:27:00;;;;;;;5.40;2.23;;;16.60;50.20;;;;;;4988599;28;20208;-70
2022/10/28 04:29:25;;;;;;;2.90;1.20;;;16.70;49.20;;;;;;4992893;28;20184;-70
2022/10/28 04:31:51;;;;;;;3.20;1.40;;;16.80;48.20;;;;;;4992175;28;20184;-70
2022/10/28 04:34:16;;;;;;;3.50;1.33;;;16.80;48.60;;;;;;4989301;28;20645;-69
2022/10/28 04:36:42;;;;;;;8.93;2.03;;;16.70;49.20;;;;;;4991094;28;20288;-69
2022/10/28 04:39:08;;;;;;;2.93;1.10;;;16.80;49.20;;;;;;4990830;28;20209;-72
2022/10/28 04:41:34;;;;;;;3.23;1.33;;;16.80;49.50;;;;;;4981542;28;20184;-70
2022/10/28 04:44:00;;;;;;;3.40;1.37;;;16.90;49.50;;;;;;4980459;28;20443;-71
2022/10/28 04:46:25;;;;;;;3.00;1.20;;;16.90;49.50;;;;;;4991676;28;20213;-72
2022/10/28 04:48:51;;;;;;;4.07;1.40;;;17.00;49.10;;;;;;4973052;28;20197;-72
2022/10/28 04:51:16;;;;;;;3.83;1.63;;;17.00;49.10;;;;;;4985710;28;20182;-72
2022/10/28 04:53:42;;;;;;;3.70;1.67;;;16.90;49.20;;;;;;4985140;28;20648;-71
2022/10/28 04:56:08;;;;;;;3.97;1.70;;;16.90;49.10;;;;;;4985637;28;20245;-71
2022/10/28 04:58:33;;;;;;;3.70;1.70;;;16.90;49.10;;;;;;4989960;28;20304;-72
2022/10/28 05:01:07;;;;;;;3.47;1.37;;;16.90;48.30;;;;;;4991786;28;20268;-72
2022/10/28 05:03:34;;;;;;;24.23;2.00;;;17.00;48.90;;;;;;4975872;28;20644;-71
2022/10/28 05:05:59;;;;;;;3.70;1.40;;;17.00;49.10;;;;;;4991470;28;20784;-71
2022/10/28 05:08:25;;;;;;;3.40;1.33;;;16.80;49.50;;;;;;4987443;28;21094;-72
2022/10/28 05:10:51;;;;;;;4.00;1.50;;;16.80;49.40;;;;;;4989053;28;20544;-71
2022/10/28 05:13:17;;;;;;;4.90;1.50;;;16.90;48.70;;;;;;4977855;28;20201;-71
2022/10/28 05:15:43;;;;;;;3.73;1.70;;;16.80;48.70;;;;;;4981847;28;20187;-72
2022/10/28 05:18:08;;;;;;;3.90;1.73;;;16.80;48.50;;;;;;4983859;28;20424;-71
2022/10/28 05:20:34;;;;;;;3.73;1.40;;;16.30;49.40;;;;;;4984872;28;20186;-71
2022/10/28 05:22:59;;;;;;;3.80;1.90;;;16.00;50.80;;;;;;4984589;28;20232;-71
2022/10/28 05:25:25;;;;;;;11.40;1.87;;;15.80;51.70;;;;;;4985800;28;20338;-71
2022/10/28 05:27:51;;;;;;;3.90;1.87;;;16.10;51.20;;;;;;4986236;28;20679;-71
2022/10/28 05:30:17;;;;;;;3.93;1.67;;;16.30;50.90;;;;;;4981556;28;20679;-71
2022/10/28 05:32:43;;;;;;;3.40;1.30;;;16.50;50.20;;;;;;4988333;28;20996;-72
2022/10/28 05:35:09;;;;;;;27.07;2.60;;;16.60;49.90;;;;;;4972805;28;20426;-73
2022/10/28 05:37:35;;;;;;;3.40;1.40;;;16.70;49.50;;;;;;4987532;28;20683;-72
2022/10/28 05:40:01;;;;;;;3.20;1.20;;;16.70;48.80;;;;;;4974758;28;20487;-71
2022/10/28 05:42:26;;;;;;;3.40;1.37;;;16.80;48.50;;;;;;4993173;28;20197;-71
2022/10/28 05:44:52;;;;;;;3.80;1.50;;;16.70;48.90;;;;;;4988220;28;20184;-72
2022/10/28 05:47:17;;;;;;;6.30;2.13;;;16.80;49.60;;;;;;4991031;28;20681;-71
2022/10/28 05:49:43;;;;;;;4.10;1.77;;;16.80;50.10;;;;;;4986108;28;20268;-71
2022/10/28 05:52:08;;;;;;;6.10;2.00;;;16.90;49.90;;;;;;4992514;28;20182;-71
2022/10/28 05:54:34;;;;;;;3.30;1.20;;;16.90;50.30;;;;;;4986463;28;20204;-71
2022/10/28 05:56:59;;;;;;;3.23;1.10;;;17.00;50.10;;;;;;4992540;28;20211;-72
2022/10/28 05:59:25;;;;;;;3.40;1.20;;;17.10;49.80;;;;;;4990351;28;20288;-71
2022/10/28 06:01:51;;;;;;;4.50;2.03;;;17.10;49.80;;;;;;4986793;28;20177;-70
2022/10/28 06:04:16;;;;;;;5.10;1.93;;;17.30;49.00;;;;;;5003338;28;20174;-71
2022/10/28 06:06:42;;;;;;;4.33;1.50;;;17.30;48.90;;;;;;4994907;28;20194;-71
2022/10/28 06:09:07;;;;;;;3.50;1.20;;;17.40;48.20;;;;;;4978893;28;20587;-72
2022/10/28 06:11:36;;;;;;;3.80;1.50;;;17.50;48.60;;;;;;4994940;28;20186;-70
2022/10/28 06:14:02;;;;;;;4.63;1.53;;;17.40;49.30;;;;;;5000911;28;20200;-71
2022/10/28 06:16:27;;;;;;;3.60;1.20;;;17.30;49.50;;;;;;5001515;28;20802;-71
2022/10/28 06:18:53;;;;;;;5.70;1.90;;;17.30;49.20;;;;;;4987678;28;20241;-72
2022/10/28 06:21:18;;;;;;;4.77;1.60;;;17.10;48.90;;;;;;4991685;28;20580;-72
2022/10/28 06:23:46;;;;;;;4.67;2.07;;;17.10;50.20;;;;;;4985411;28;20197;-72
2022/10/28 06:26:11;;;;;;;4.00;1.60;;;17.20;50.70;;;;;;4987654;28;20216;-71
2022/10/28 06:28:37;;;;;;;3.97;1.57;;;17.40;49.70;;;;;;4991091;28;20433;-72
2022/10/28 06:31:08;;;;;;;4.00;1.40;;;17.40;49.40;;;;;;4990505;28;20228;-72
2022/10/28 06:33:34;;;;;;;4.73;1.83;;;17.40;49.40;;;;;;4994126;28;20205;-71
2022/10/28 06:36:00;;;;;;;3.60;1.30;;;17.40;49.00;;;;;;4993137;28;20476;-70
2022/10/28 06:38:29;;;;;;;3.80;1.40;;;17.30;49.70;;;;;;4992306;28;20452;-71
2022/10/28 06:40:58;;;;;;;3.80;1.40;;;17.40;49.50;;;;;;4988480;28;20460;-72
2022/10/28 06:43:24;;;;;;;3.70;1.30;;;17.40;50.00;;;;;;4986606;28;20820;-70
2022/10/28 06:45:54;;;;;;;4.30;1.40;;;17.40;49.70;;;;;;4992188;28;20456;-71
2022/10/28 06:48:19;;;;;;;6.30;1.70;;;17.40;49.20;;;;;;4988275;28;20449;-71
2022/10/28 06:50:45;;;;;;;13.80;2.50;;;17.30;49.00;;;;;;4984979;28;20433;-71
2022/10/28 06:53:10;;;;;;;4.20;1.80;;;17.40;49.10;;;;;;4982811;28;20171;-71
2022/10/28 06:55:36;;;;;;;4.53;1.87;;;17.40;48.80;;;;;;4991663;28;20240;-71
2022/10/28 06:58:02;;;;;;;4.33;1.60;;;17.40;48.60;;;;;;4993749;28;20186;-72
2022/10/28 07:00:29;;;;;;;4.00;1.50;;;17.50;48.40;;;;;;4982048;28;20222;-72
2022/10/28 07:02:55;;;;;;;7.80;2.33;;;17.50;48.70;;;;;;4964734;28;20438;-71
2022/10/28 07:05:23;;;;;;;3.73;1.40;;;17.60;49.30;;;;;;4993176;28;20983;-71
2022/10/28 07:07:48;;;;;;;5.57;2.00;;;17.60;48.80;;;;;;4986253;28;20206;-74
2022/10/28 07:10:14;;;;;;;3.70;1.30;;;17.70;48.10;;;;;;4993137;28;20463;-75
2022/10/28 07:12:40;;;;;;;4.70;1.57;;;17.70;48.90;;;;;;4988398;28;20588;-75
2022/10/28 07:15:06;;;;;;;4.33;1.57;;;17.70;49.00;;;;;;4986462;28;20441;-73
2022/10/28 07:17:32;;;;;;;3.90;1.33;;;18.00;48.00;;;;;;4985709;28;20582;-74
2022/10/28 07:19:57;;;;;;;3.80;1.40;;;18.00;48.50;;;;;;4989036;28;20478;-74
2022/10/28 07:22:23;;;;;;;3.77;1.50;;;18.00;49.10;;;;;;4990183;28;20252;-74
2022/10/28 07:24:49;;;;;;;4.50;2.00;;;18.00;49.30;;;;;;4993722;28;20195;-74
2022/10/28 07:27:14;;;;;;;9.00;2.80;;;17.90;48.70;;;;;;4987352;28;20207;-74
2022/10/28 07:29:40;;;;;;;3.53;1.30;;;17.10;51.90;;;;;;4983729;28;20190;-74
2022/10/28 07:32:05;;;;;;;36.70;2.93;;;16.10;57.90;;;;;;4991990;28;20186;-74
2022/10/28 07:34:31;;;;;;;5.00;1.80;;;15.70;61.10;;;;;;4986580;28;20197;-73
2022/10/28 07:36:57;;;;;;;3.30;1.27;;;16.00;60.10;;;;;;4996698;28;20629;-75
2022/10/28 07:39:22;;;;;;;3.93;1.70;;;16.60;56.60;;;;;;4995530;28;20221;-74
2022/10/28 07:41:48;;;;;;;4.60;1.60;;;16.40;55.40;;;;;;4987277;28;20186;-74
2022/10/28 07:44:14;;;;;;;3.60;1.60;;;16.00;57.70;;;;;;4993004;28;20189;-74
2022/10/28 07:46:40;;;;;;;3.40;1.50;;;16.40;55.50;;;;;;4984745;28;20229;-75
2022/10/28 07:49:06;;;;;;;6.00;1.80;;;17.00;53.00;;;;;;4969563;28;20452;-75
2022/10/28 07:51:32;;;;;;;3.20;1.30;;;17.60;50.40;;;;;;4985727;28;20446;-75
2022/10/28 07:53:57;;;;;;;3.60;1.90;;;17.30;50.00;;;;;;4993748;28;20208;-78
2022/10/28 07:56:24;;;;;;;3.70;1.63;;;17.70;50.50;;;;;;4974711;28;20221;-73
2022/10/28 07:58:49;;;;;;;7.10;2.57;;;17.90;50.20;;;;;;4988451;28;20486;-79
2022/10/28 08:01:17;;;;;;;3.30;1.60;;;18.20;49.60;;;;;;4984743;28;20442;-78
2022/10/28 08:03:43;;;;;;;3.20;1.60;;;18.30;48.60;;;;;;4973071;28;21914;-72
2022/10/28 08:06:11;;;;;;;4.20;1.77;;;18.60;48.00;;;;;;4984938;28;20456;-73
2022/10/28 08:08:38;;;;;;;5.90;1.73;;;18.40;47.80;;;;;;4982744;28;20471;-72
2022/10/28 08:11:11;;;;;;;3.13;1.60;;;18.00;49.30;;;;;;4987090;28;20444;-73
2022/10/28 08:13:37;;;;;;;7.93;2.07;;;17.50;51.10;;;;;;4975619;28;20436;-72
2022/10/28 08:16:03;;;;;;;2.60;1.33;;;17.50;51.70;;;;;;4991154;28;20571;-73
2022/10/28 08:18:28;;;;;;;2.80;1.53;;;17.80;50.00;;;;;;4983529;28;20220;-73
2022/10/28 08:20:57;;;;;;;5.03;2.20;;;18.50;49.60;;;;;;4990831;28;20644;-73
2022/10/28 08:23:22;;;;;;;2.30;1.30;;;18.80;46.50;;;;;;4987614;28;20572;-72
2022/10/28 08:25:49;;;;;;;2.23;1.30;;;19.20;46.50;;;;;;4980431;28;21663;-73
2022/10/28 08:28:15;;;;;;;4.90;2.10;;;19.40;46.50;;;;;;4989262;28;20174;-73
2022/10/28 08:30:41;;;;;;;2.47;1.43;;;19.50;46.00;;;;;;4985497;28;20939;-72
2022/10/28 08:33:06;;;;;;;2.50;1.47;;;19.70;46.00;;;;;;4979737;28;20234;-73
2022/10/28 08:35:34;;;;;;;3.77;1.93;;;20.00;44.70;;;;;;4992025;28;20873;-73
2022/10/28 08:38:00;;;;;;;2.10;1.27;;;20.10;44.10;;;;;;4984764;28;20272;-73
2022/10/28 08:40:50;;;;;;;3.13;1.83;;;20.20;43.20;;;;;;4990989;28;20564;-73
2022/10/28 08:43:26;;;;;;;2.30;1.50;;;20.40;42.50;;;;;;4988676;28;20187;-72
2022/10/28 08:46:12;;;;;;;2.00;1.30;;;20.50;43.10;;;;;;4981671;28;20437;-72
2022/10/28 08:48:39;;;;;;;2.70;1.60;;;20.50;42.10;;;;;;4983888;28;20503;-73
2022/10/28 08:51:28;;;;;;;1.80;1.10;;;20.40;42.00;;;;;;4994152;28;20923;-73
2022/10/28 08:53:59;;;;;;;2.40;1.70;;;20.40;42.00;;;;;;4992741;28;20464;-72
2022/10/28 08:56:32;;;;;;;2.30;1.50;;;20.40;42.00;;;;;;4995156;28;20451;-72
2022/10/28 08:59:03;;;;;;;3.70;1.87;;;20.60;42.50;;;;;;4977311;28;20467;-72
2022/10/28 09:01:50;;;;;;;4.53;1.63;;;20.80;40.90;;;;;;4984285;28;20802;-72
2022/10/28 09:04:26;;;;;;;2.07;1.30;;;21.00;40.80;;;;;;4993784;28;20916;-72
2022/10/28 09:06:52;;;;;;;5.13;1.80;;;21.00;40.00;;;;;;4973781;28;20550;-72
2022/10/28 09:09:20;;;;;;;1.70;1.20;;;21.10;40.10;;;;;;4968506;28;20511;-72
2022/10/28 09:12:01;;;;;;;2.73;1.77;;;21.30;37.50;;;;;;4981648;28;20186;-71
2022/10/28 09:15:00;;;;;;;2.53;1.67;;;21.30;36.70;;;;;;4995488;28;20962;-73
2022/10/28 09:17:41;;;;;;;1.80;1.40;;;21.50;36.70;;;;;;5000541;28;20497;-72
2022/10/28 09:20:43;;;;;;;1.80;1.30;;;21.60;36.20;;;;;;4984061;28;21066;-73
2022/10/28 09:23:32;;;;;;;1.80;1.30;;;21.80;36.90;;;;;;4991312;28;20430;-73
2022/10/28 09:26:19;;;;;;;3.30;2.10;;;21.60;36.60;;;;;;4999870;28;20448;-73
2022/10/28 09:29:24;;;;;;;3.30;1.60;;;21.40;37.00;;;;;;4991783;28;20508;-73
2022/10/28 09:31:56;;;;;;;1.90;1.30;;;20.80;39.10;;;;;;4989455;28;20492;-72
2022/10/28 09:34:43;;;;;;;2.93;1.87;;;20.40;40.20;;;;;;5002252;28;20455;-72
2022/10/28 09:37:13;;;;;;;2.37;1.53;;;20.20;41.80;;;;;;4989937;28;20457;-72
2022/10/28 09:39:44;;;;;;;2.10;1.40;;;20.10;42.90;;;;;;4983858;28;21007;-73
2022/10/28 09:42:20;;;;;;;2.50;1.60;;;20.30;42.50;;;;;;4983076;28;20511;-72
2022/10/28 09:44:52;;;;;;;2.13;1.50;;;20.60;42.00;;;;;;5007719;28;20417;-73
2022/10/28 09:47:29;;;;;;;2.10;1.50;;;21.10;41.30;;;;;;4991006;28;20500;-73
2022/10/28 09:49:58;;;;;;;2.43;1.70;;;21.30;41.70;;;;;;4983384;28;20782;-73
2022/10/28 09:52:33;;;;;;;1.67;1.20;;;21.20;42.10;;;;;;4982163;28;20438;-73
2022/10/28 09:55:06;;;;;;;2.00;1.50;;;21.30;40.50;;;;;;4992645;28;20447;-73
2022/10/28 09:57:31;;;;;;;1.90;1.50;;;20.10;43.60;;;;;;4987760;28;20464;-73
2022/10/28 09:59:58;;;;;;;2.87;1.60;;;19.40;46.90;;;;;;4987660;28;20461;-73
2022/10/28 10:02:29;;;;;;;1.70;1.30;;;20.30;45.30;;;;;;4983272;28;20183;-74
2022/10/28 10:04:56;;;;;;;1.87;1.40;;;20.80;43.40;;;;;;4980340;28;20451;-74
2022/10/28 10:07:38;;;;;;;2.13;1.50;;;20.70;42.10;;;;;;4996415;28;20496;-73
2022/10/28 10:10:13;;;;;;;2.20;1.60;;;20.20;43.80;;;;;;4988209;28;20425;-73
2022/10/28 10:12:39;;;;;;;2.53;1.60;;;20.80;42.60;;;;;;4972197;28;20430;-74
2022/10/28 10:15:09;;;;;;;1.77;1.40;;;21.50;41.10;;;;;;4979698;28;20442;-71
2022/10/28 10:17:40;;;;;;;4.33;1.70;;;21.60;41.70;;;;;;4991520;28;20447;-72
2022/10/28 10:20:09;;;;;;;3.20;1.70;;;21.90;39.80;;;;;;4980944;28;20535;-73
2022/10/28 10:22:42;;;;;;;2.20;1.60;;;21.50;39.30;;;;;;4989596;28;20431;-73
2022/10/28 10:25:19;;;;;;;18.30;1.70;;;21.70;39.50;;;;;;4982559;28;20439;-73
2022/10/28 10:27:52;;;;;;;2.70;1.77;;;22.20;39.00;;;;;;4980300;28;20470;-74
2022/10/28 10:30:22;;;;;;;2.03;1.60;;;22.70;36.40;;;;;;4982649;28;20483;-74
2022/10/28 10:32:48;;;;;;;1.80;1.40;;;22.70;35.80;;;;;;4962462;28;20786;-72
2022/10/28 10:35:16;;;;;;;3.37;1.67;;;22.60;36.90;;;;;;4990131;28;20444;-73
2022/10/28 10:37:44;;;;;;;7.10;1.90;;;23.10;35.40;;;;;;4988853;28;20225;-73
2022/10/28 10:40:21;;;;;;;1.80;1.23;;;23.00;35.50;;;;;;4985389;28;21043;-73
2022/10/28 10:42:47;;;;;;;1.70;1.20;;;22.80;34.10;;;;;;4983371;28;20433;-73
2022/10/28 10:45:26;;;;;;;2.30;1.50;;;22.80;34.70;;;;;;4988562;28;21003;-71
2022/10/28 10:48:09;;;;;;;2.57;1.70;;;23.00;34.20;;;;;;4991326;28;20473;-72
2022/10/28 10:50:36;;;;;;;1.90;1.40;;;23.20;33.00;;;;;;4989915;28;20438;-73
2022/10/28 10:53:03;;;;;;;2.20;1.50;;;23.30;33.90;;;;;;4989888;28;20450;-73
2022/10/28 10:56:01;;;;;;;2.57;1.43;;;23.80;33.60;;;;;;4984756;28;20449;-73
2022/10/28 10:58:31;;;;;;;2.07;1.20;;;24.10;32.40;;;;;;4990830;28;20465;-73
2022/10/28 11:00:59;;;;;;;2.50;1.60;;;24.30;31.10;;;;;;4984349;28;20436;-74
2022/10/28 11:03:37;;;;;;;2.37;1.33;;;23.80;31.90;;;;;;4992784;28;20650;-73
2022/10/28 11:06:06;;;;;;;2.80;1.53;;;23.20;34.00;;;;;;4988967;28;20555;-73
2022/10/28 11:08:38;;;;;;;2.87;1.60;;;22.90;36.20;;;;;;4990222;28;20501;-72
2022/10/28 11:11:18;;;;;;;2.50;1.40;;;22.90;35.20;;;;;;4993944;28;20946;-74
2022/10/28 11:13:45;;;;;;;2.60;1.60;;;22.60;36.20;;;;;;4974698;28;20455;-73
2022/10/28 11:16:22;;;;;;;2.50;1.40;;;22.30;36.30;;;;;;4982879;28;20519;-73
2022/10/28 11:18:51;;;;;;;2.93;1.40;;;22.70;36.00;;;;;;4991998;28;20476;-73
2022/10/28 11:21:47;;;;;;;2.60;1.57;;;22.60;35.70;;;;;;5002569;28;20431;-73
2022/10/28 11:24:21;;;;;;;2.17;1.30;;;22.80;35.60;;;;;;4974728;28;20439;-73
2022/10/28 11:27:11;;;;;;;2.20;1.23;;;22.90;35.60;;;;;;4990384;28;20516;-73
2022/10/28 11:29:36;;;;;;;3.43;1.70;;;23.60;35.50;;;;;;4992546;28;20447;-72
2022/10/28 11:32:29;;;;;;;2.53;1.53;;;24.00;34.40;;;;;;4992483;28;20443;-73
2022/10/28 11:35:33;;;;;;;2.67;1.50;;;24.40;32.90;;;;;;4983548;28;20188;-74
2022/10/28 11:38:12;;;;;;;2.70;1.63;;;24.70;31.80;;;;;;4986047;28;20447;-73
2022/10/28 11:40:44;;;;;;;2.30;1.30;;;24.90;34.70;;;;;;4995221;28;20471;-74
2022/10/28 11:43:35;;;;;;;2.63;1.43;;;25.10;32.30;;;;;;4986960;28;20444;-73
2022/10/28 11:46:31;;;;;;;6.27;1.53;;;25.20;31.90;;;;;;4983966;28;20468;-74
2022/10/28 11:49:30;;;;;;;2.80;1.27;;;25.30;31.40;;;;;;4983783;28;20532;-74
2022/10/28 11:52:14;;;;;;;3.23;1.60;;;25.60;30.80;;;;;;4982000;28;20429;-73
2022/10/28 11:55:04;;;;;;;2.80;1.50;;;25.50;31.40;;;;;;4983328;28;20835;-73
2022/10/28 11:57:57;;;;;;;2.53;1.23;;;25.40;32.30;;;;;;4985790;28;20468;-73
2022/10/28 12:00:47;;;;;;;4.50;1.80;;;25.10;34.70;;;;;;4993490;28;20963;-73
2022/10/28 12:03:47;;;;;;;2.90;1.60;;;25.10;34.20;;;;;;4993957;28;20947;-73
2022/10/28 12:06:50;;;;;;;5.93;2.10;;;25.10;34.90;;;;;;4987394;28;20789;-73
2022/10/28 12:09:16;;;;;;;2.87;1.20;;;25.10;34.70;;;;;;4991440;28;20427;-74
2022/10/28 12:12:00;;;;;;;2.70;1.30;;;25.10;35.80;;;;;;4993079;28;20435;-73
2022/10/28 12:14:28;;;;;;;3.43;1.43;;;25.20;34.70;;;;;;4983704;28;20189;-74
2022/10/28 12:17:13;;;;;;;2.60;1.30;;;25.10;35.10;;;;;;4991198;28;20460;-74
2022/10/28 12:19:50;;;;;;;2.50;1.30;;;25.00;35.80;;;;;;4986504;28;20513;-73
2022/10/28 12:22:44;;;;;;;2.70;1.53;;;25.00;35.20;;;;;;4988805;28;20441;-73
2022/10/28 12:25:22;;;;;;;2.47;1.30;;;25.10;34.40;;;;;;4981303;28;20507;-74
2022/10/28 12:27:51;;;;;;;3.37;1.73;;;25.10;34.70;;;;;;4997016;28;20452;-73
2022/10/28 12:30:20;;;;;;;2.40;1.30;;;25.10;35.60;;;;;;4990654;28;20523;-74
2022/10/28 12:32:51;;;;;;;3.67;1.97;;;25.10;35.00;;;;;;4990243;28;20428;-74
2022/10/28 12:35:31;;;;;;;2.70;1.40;;;25.30;33.50;;;;;;4968690;28;20486;-74
2022/10/28 12:38:05;;;;;;;3.23;1.80;;;25.50;33.50;;;;;;5002481;28;20446;-73
2022/10/28 12:40:38;;;;;;;2.53;1.37;;;25.60;34.00;;;;;;4984560;28;20994;-74
2022/10/28 12:43:06;;;;;;;2.97;1.57;;;25.70;34.80;;;;;;4990254;28;20451;-74
2022/10/28 12:45:32;;;;;;;4.60;1.70;;;26.00;31.60;;;;;;4995117;28;20439;-73
2022/10/28 12:48:30;;;;;;;5.00;1.93;;;26.40;30.60;;;;;;5009291;28;20486;-72
2022/10/28 12:51:19;;;;;;;2.83;1.50;;;26.70;30.50;;;;;;4980732;28;20932;-73
2022/10/28 12:54:20;;;;;;;3.30;1.47;;;26.70;30.50;;;;;;4991760;28;21038;-73
2022/10/28 12:56:55;;;;;;;2.97;1.43;;;26.10;32.60;;;;;;5004723;28;20456;-74
2022/10/28 13:00:02;;;;;;;2.80;1.50;;;25.90;32.30;;;;;;4989025;28;20453;-73
2022/10/28 13:02:44;;;;;;;2.90;1.40;;;25.80;33.30;;;;;;4896388;29;20445;-73
2022/10/28 13:05:23;;;;;;;2.80;1.50;;;26.30;31.60;;;;;;4893555;29;20434;-73
2022/10/28 13:08:25;;;;;;;3.37;1.70;;;26.70;31.30;;;;;;4893053;29;20484;-72
2022/10/28 13:11:16;;;;;;;3.43;1.57;;;27.20;30.80;;;;;;4893800;29;20436;-72